25 septembre 2022

Temps Code Temps Temp. Vue Base cloud Vent METAR/SPECI
12:30
V
17 °C 10 km+ - 040° 040° 10 kt METAR LFRV 251030Z AUTO 04010KT 360V060 9999 SCT026 SCT035 17/11 Q1018
12:00
M
17 °C 10 km+ 2.900 ft 030° 030° 10 kt METAR LFRV 251000Z AUTO 03010KT 010V070 9999 FEW019 SCT024 BKN029 17/12 Q1018
11:30
V
16 °C 10 km+ - 020° 020° 10 kt METAR LFRV 250930Z AUTO 02010KT 360V060 9999 SCT020 SCT025 16/11 Q1018
11:00
M
15 °C 10 km+ 1.200 ft 030° 030° 10 kt METAR LFRV 250900Z AUTO 03010KT 360V060 9999 BKN012 BKN068 15/12 Q1018
10:30
V
14 °C 10 km+ - 010° 010° 8 kt METAR LFRV 250830Z AUTO 01008KT 340V040 9999 FEW010 14/12 Q1018
10:00
V
13 °C 10 km+ - 360° 360° 9 kt METAR LFRV 250800Z AUTO 36009KT CAVOK 13/12 Q1018
09:30
V
12 °C 10 km+ - 350° 350° 7 kt METAR LFRV 250730Z AUTO 35007KT CAVOK 12/11 Q1018
09:00
V
12 °C 10 km+ 7.000 ft 360° 360° 7 kt METAR LFRV 250700Z AUTO 36007KT 9999 FEW019 OVC070 12/11 Q1018
08:30
V
12 °C 10 km+ - 360° 360° 6 kt METAR LFRV 250630Z AUTO 36006KT CAVOK 12/11 Q1018
08:00
V
11 °C 10 km+ - 360° 360° 6 kt METAR LFRV 250600Z AUTO 36006KT CAVOK 11/10 Q1018
07:30
V
11 °C 10 km+ - 360° 360° 5 kt METAR LFRV 250530Z AUTO 36005KT CAVOK 11/10 Q1017
07:00
V
12 °C 10 km+ 5.000 ft 020° 020° 7 kt METAR LFRV 250500Z AUTO 02007KT 350V050 9999 FEW035 BKN050 OVC062 12/10 Q1017
06:30
V
11 °C 10 km+ - 360° 360° 7 kt METAR LFRV 250430Z AUTO 36007KT CAVOK 11/10 Q1017
06:00
V
11 °C 10 km+ - 360° 360° 7 kt METAR LFRV 250400Z AUTO 36007KT 9999 ///TCU 11/10 Q1017
05:30
V
11 °C 10 km+ - 340° 340° 6 kt METAR LFRV 250330Z AUTO 34006KT 9999 ///TCU 11/10 Q1017
05:00
V
11 °C 10 km+ 6.600 ft 340° 340° 6 kt METAR LFRV 250300Z AUTO 34006KT 9999 FEW038/// BKN066/// OVC076/// ///TCU 11/10 Q1017
04:30
V
11 °C 10 km+ - 340° 340° 6 kt METAR LFRV 250230Z AUTO 34006KT CAVOK 11/10 Q1017
04:00
V
11 °C 10 km+ - 350° 350° 5 kt METAR LFRV 250200Z AUTO 35005KT 9999 ///TCU 11/10 Q1017
03:30
V
11 °C 9 km 5.600 ft 350° 350° 6 kt METAR LFRV 250130Z AUTO 35006KT 9000 -RA FEW029/// SCT043/// BKN056/// ///TCU 11/10 Q1017
03:00
V
11 °C 10 km+ 5.800 ft 340° 340° 6 kt METAR LFRV 250100Z AUTO 34006KT 9999 -RA SCT031/// SCT043/// OVC058/// ///TCU 11/10 Q1017
02:30
V
11 °C 10 km+ 6.200 ft 340° 340° 6 kt METAR LFRV 250030Z AUTO 34006KT 9999 -RADZ SCT045/// OVC062/// ///TCU 11/10 Q1018
02:00
V
11 °C 10 km+ 5.600 ft 360° 360° 7 kt METAR LFRV 250000Z AUTO 36007KT 9999 FEW038 SCT044 OVC056 11/09 Q1018
01:30
V
11 °C 10 km+ 4.900 ft 350° 350° 7 kt METAR LFRV 242330Z AUTO 35007KT 9999 SCT036 BKN049 BKN068 11/09 Q1018
01:00
V
10 °C 10 km+ - 340° 340° 7 kt METAR LFRV 242300Z AUTO 34007KT CAVOK 10/09 Q1017
00:30
V
10 °C 10 km+ - 340° 340° 7 kt METAR LFRV 242230Z AUTO 34007KT CAVOK 10/09 Q1018
00:00
V
10 °C 10 km+ - 330° 330° 7 kt METAR LFRV 242200Z AUTO 33007KT CAVOK 10/09 Q1018

24 septembre 2022

Temps Code Temps Temp. Vue Base cloud Vent METAR/SPECI
23:30
V
11 °C 10 km+ - 330° 330° 7 kt METAR LFRV 242130Z AUTO 33007KT CAVOK 11/09 Q1018
23:00
V
11 °C 10 km+ - 340° 340° 8 kt METAR LFRV 242100Z AUTO 34008KT CAVOK 11/10 Q1017
22:30
V
11 °C 10 km+ - 340° 340° 7 kt METAR LFRV 242030Z AUTO 34007KT CAVOK 11/10 Q1017
22:00
V
12 °C 10 km+ - 340° 340° 6 kt METAR LFRV 242000Z AUTO 34006KT CAVOK 12/10 Q1017
21:30
V
12 °C 10 km+ - 350° 350° 9 kt METAR LFRV 241930Z AUTO 35009KT CAVOK 12/10 Q1017
21:00
V
12 °C 10 km+ - 350° 350° 7 kt METAR LFRV 241900Z AUTO 35007KT CAVOK 12/10 Q1017
20:30
V
13 °C 10 km+ - 350° 350° 7 kt METAR LFRV 241830Z AUTO 35007KT CAVOK 13/10 Q1017
20:00
V
13 °C 10 km+ - 350° 350° 8 kt METAR LFRV 241800Z AUTO 35008KT CAVOK 13/11 Q1016
19:30
V
13 °C 10 km+ - 340° 340° 7 kt METAR LFRV 241730Z AUTO 34007KT CAVOK 13/11 Q1016
19:00
V
14 °C 10 km+ - 340° 340° 8 kt METAR LFRV 241700Z AUTO 34008KT 310V010 CAVOK 14/11 Q1016
18:30
V
14 °C 10 km+ - 340° 340° 8 kt METAR LFRV 241630Z AUTO 34008KT CAVOK 14/10 Q1016
18:00
V
14 °C 10 km+ - 340° 340° 8 kt METAR LFRV 241600Z AUTO 34008KT CAVOK 14/09 Q1016
17:30
V
14 °C 10 km+ - 350° 350° 8 kt METAR LFRV 241530Z AUTO 35008KT CAVOK 14/08 Q1016
17:00
V
13 °C 10 km+ - 350° 350° 11 kt METAR LFRV 241500Z AUTO 35011KT CAVOK 13/08 Q1016
16:30
V
14 °C 10 km+ - 360° 360° 12 kt METAR LFRV 241430Z AUTO 36012KT 330V030 9999 ///TCU 14/09 Q1016
16:00
V
15 °C 10 km+ 8.400 ft 360° 360° 14 kt METAR LFRV 241400Z AUTO 36014KT 330V030 9999 FEW027/// BKN084/// ///TCU 15/09 Q1016
15:30
V
16 °C 10 km+ 8.200 ft 330° 330° 12 kt METAR LFRV 241330Z AUTO 33012KT 300V360 9999 FEW030/// SCT038/// BKN082/// ///TCU 16/11 Q1016
15:00
V
15 °C 10 km+ - 350° 350° 12 kt METAR LFRV 241300Z AUTO 35012KT 310V010 9999 ///TCU 15/08 Q1016
14:30
V
16 °C 10 km+ - 350° 350° 11 kt METAR LFRV 241230Z AUTO 35011KT 9999 ///CB 16/08 Q1016
14:00
V
17 °C 10 km+ 7.200 ft 010° 010° 9 kt METAR LFRV 241200Z AUTO 01009KT 330V030 9999 FEW023/// BKN072/// BKN120/// ///CB 17/10 Q1016
13:30
M
16 °C 10 km+ 2.400 ft 010° 010° 10 kt METAR LFRV 241130Z AUTO 01010KT 340V040 9999 BKN024/// BKN032/// BKN078/// ///TCU 16/11 Q1016
13:00
V
16 °C 10 km+ - 360° 360° 8 kt METAR LFRV 241100Z AUTO 36008KT CAVOK 16/11 Q1016
12:30
V
16 °C 10 km+ - 350° 350° 8 kt METAR LFRV 241030Z AUTO 35008KT 330V030 CAVOK 16/10 Q1016
12:00
V
14 °C 10 km+ - 040° 040° 9 kt METAR LFRV 241000Z AUTO 04009KT 9999 ///TCU 14/10 Q1016
11:30
V
14 °C 10 km+ 6.000 ft 020° 020° 11 kt METAR LFRV 240930Z AUTO 02011KT 9999 FEW019/// BKN060/// ///TCU 14/11 Q1016
11:00
V
15 °C 10 km+ 4.800 ft 350° 350° 9 kt METAR LFRV 240900Z AUTO 35009KT 9999 BKN048/// ///TCU 15/13 Q1016
10:30
V
13 °C 10 km+ - 350° 350° 5 kt METAR LFRV 240830Z AUTO 35005KT 9999 FEW015 SCT092 13/12 Q1016
10:00
V
12 °C 10 km+ - 340° 340° 7 kt METAR LFRV 240800Z AUTO 34007KT 9999 FEW031/// ///TCU 12/11 Q1015
09:30
V
13 °C 10 km+ - 330° 330° 7 kt METAR LFRV 240730Z AUTO 33007KT 300V360 CAVOK 13/12 Q1015
09:00
V
12 °C 10 km+ - 340° 340° 8 kt METAR LFRV 240700Z AUTO 34008KT CAVOK 12/11 Q1015
08:30
V
12 °C 10 km+ - 340° 340° 9 kt METAR LFRV 240630Z AUTO 34009KT CAVOK 12/11 Q1015
08:00
V
12 °C 10 km+ - 350° 350° 10 kt METAR LFRV 240600Z AUTO 35010KT CAVOK 12/11 Q1014
07:30
V
12 °C 10 km+ - 340° 340° 10 kt METAR LFRV 240530Z AUTO 34010KT CAVOK 12/11 Q1014
07:00
V
12 °C 10 km+ - 340° 340° 8 kt METAR LFRV 240500Z AUTO 34008KT CAVOK 12/11 Q1014
06:30
V
11 °C 10 km+ - 340° 340° 8 kt METAR LFRV 240430Z AUTO 34008KT CAVOK 11/11 Q1014
06:00
V
11 °C 10 km+ - 340° 340° 8 kt METAR LFRV 240400Z AUTO 34008KT CAVOK 11/11 Q1014
05:30
V
12 °C 9 km - 350° 350° 8 kt METAR LFRV 240330Z AUTO 35008KT 9000 NSC 12/11 Q1014
05:00
M
12 °C 7 km - 340° 340° 9 kt METAR LFRV 240300Z AUTO 34009KT 7000 NSC 12/11 Q1014
04:30
M
12 °C 7 km - 350° 350° 8 kt METAR LFRV 240230Z AUTO 35008KT 7000 NSC 12/11 Q1014
04:00
M
12 °C 7 km - 350° 350° 9 kt METAR LFRV 240200Z AUTO 35009KT 7000 NSC 12/11 Q1014
03:30
M
12 °C 7 km - 350° 350° 9 kt METAR LFRV 240130Z AUTO 35009KT 7000 NSC 12/12 Q1014
03:00
M
12 °C 6 km - 340° 340° 9 kt METAR LFRV 240100Z AUTO 34009KT 6000 NSC 12/12 Q1015
02:30
M
12 °C 6 km - 340° 340° 9 kt METAR LFRV 240030Z AUTO 34009KT 6000 NSC 12/12 Q1015
02:00
M
13 °C 6 km - 340° 340° 9 kt METAR LFRV 240000Z AUTO 34009KT 6000 NSC 13/12 Q1015
01:30
M
13 °C 7 km - 340° 340° 10 kt METAR LFRV 232330Z AUTO 34010KT 7000 NSC 13/12 Q1015
01:00
M
13 °C 7 km - 340° 340° 8 kt METAR LFRV 232300Z AUTO 34008KT 7000 NSC 13/12 Q1015
00:30
V
13 °C 8 km - 340° 340° 7 kt METAR LFRV 232230Z AUTO 34007KT 8000 FEW006 SCT078 13/13 Q1015
00:00
V
14 °C 10 km+ 3.400 ft 320° 320° 6 kt METAR LFRV 232200Z AUTO 32006KT 9999 FEW007 SCT028 BKN034 14/13 Q1015

23 septembre 2022

Temps Code Temps Temp. Vue Base cloud Vent METAR/SPECI
23:30
I
14 °C 10 km+ 900 ft 320° 320° 5 kt METAR LFRV 232130Z AUTO 32005KT 290V350 9999 BKN009 BKN029 OVC044 14/13 Q1015
23:00
M
14 °C 10 km+ 1.200 ft 300° 300° 3 kt METAR LFRV 232100Z AUTO 30003KT 9999 BKN012 BKN017 OVC022 14/14 Q1015
22:30
M
14 °C 10 km+ 1.300 ft Var Var 3 kt METAR LFRV 232030Z AUTO VRB03KT 9999 BKN013/// BKN020/// OVC035/// ///TCU 14/14 Q1015
22:00
M
14 °C 10 km+ 2.600 ft 290° 290° 2 kt METAR LFRV 232000Z AUTO 29002KT 9999 FEW008/// SCT019/// BKN026/// ///TCU 14/14 Q1015
21:30
L
14 °C 4,3 km 300 ft 280° 280° 4 kt METAR LFRV 231930Z AUTO 28004KT 240V310 4300 +RA BR OVC003/// ///TCU 14/14 Q1015
21:00
L
14 °C 9 km 300 ft 230° 230° 4 kt METAR LFRV 231900Z AUTO 23004KT 200V260 9000 BKN003/// OVC007/// ///CB 14/14 Q1015
20:30
I
14 °C 5 km 600 ft Var Var 2 kt METAR LFRV 231830Z AUTO VRB02KT 5000 +DZ BR BKN006/// OVC013/// ///TCU 14/13 Q1015
20:00
I
14 °C 10 km+ 900 ft Var Var 2 kt METAR LFRV 231800Z AUTO VRB02KT 9999 BKN009 OVC036 14/13 Q1015
19:30
M
14 °C 10 km+ 1.000 ft Var Var 3 kt METAR LFRV 231730Z AUTO VRB03KT 9999 BKN010/// BKN017/// BKN034/// ///TCU 14/13 Q1015
19:00
V
14 °C 9 km 5.400 ft 240° 240° 3 kt METAR LFRV 231700Z AUTO 24003KT 200V270 9000 -RA FEW018/// SCT028/// BKN054/// ///CB 14/13 Q1015
18:30
V
15 °C 10 km+ - Var Var 2 kt METAR LFRV 231630Z AUTO VRB02KT 9999 -RA ///TCU 15/12 Q1015
18:00
V
15 °C 10 km+ - Var Var 1 kt METAR LFRV 231600Z AUTO VRB01KT 9999 -RA ///CB 15/12 Q1015
17:30
V
15 °C 10 km+ - Var Var 1 kt METAR LFRV 231530Z AUTO VRB01KT 9999 ///CB 15/12 Q1015
17:00
V
15 °C 10 km+ 8.400 ft 280° 280° 5 kt METAR LFRV 231500Z AUTO 28005KT 9999 -RA FEW034/// OVC084/// ///CB 15/12 Q1015
16:30
V
15 °C 10 km+ 5.200 ft 290° 290° 7 kt METAR LFRV 231430Z AUTO 29007KT 9999 -RA FEW034/// BKN052/// OVC082/// ///CB 15/12 Q1015
16:00
V
18 °C 10 km+ 8.800 ft 260° 260° 6 kt METAR LFRV 231400Z AUTO 26006KT 220V300 9999 FEW030/// SCT066/// OVC088/// ///CB 18/11 Q1015
15:30
V
18 °C 10 km+ - 260° 260° 6 kt METAR LFRV 231330Z AUTO 26006KT 200V300 9999 ///CB 18/10 Q1015
15:00
V
18 °C 10 km+ 8.400 ft 280° 280° 6 kt METAR LFRV 231300Z AUTO 28006KT 230V310 9999 FEW026/// OVC084/// ///CB 18/11 Q1016
14:30
V
18 °C 10 km+ - 250° 250° 5 kt METAR LFRV 231230Z AUTO 25005KT 210V280 CAVOK 18/10 Q1016
14:00
V
18 °C 10 km+ - 240° 240° 6 kt METAR LFRV 231200Z AUTO 24006KT 170V280 CAVOK 18/11 Q1016
13:30
V
18 °C 10 km+ - 250° 250° 5 kt METAR LFRV 231130Z AUTO 25005KT 190V280 CAVOK 18/11 Q1016
13:00
V
18 °C 10 km+ - 140° 140° 3 kt METAR LFRV 231100Z AUTO 14003KT 090V190 CAVOK 18/10 Q1016
Données plus anciennes

Nous et des tiers suivons ton comportement sur Internet sur notre site Web à l'aide de cookies. Si tu continues, nous supposons que tu acceptes notre politique en matière de cookies. Apprendre plus